• Join FlightAware (Why Join?)
  • Login
  • US Flag 
09:34AM EDT


 

Airport Tracker/Info


-or-


 

Live Flight TrackerFlight Track Log ✈ N508QS ✈ 04-Jun-2013 ✈ KSFO - KPDK

Flight Track Log - Related Links

Times and Time Zones

All times are in EDT time to prevent confusion due to time zone crossing. See the N508QS flight status page for this flight to view local times or setup timezone preferences in your user account.

Time Position Orientation Groundspeed Altitude Reporting Facility
EDT Latitude Longitude Course Direction KTS MPH feet Rate Location/Type
02:47PM 37.6333 -122.3667 50° Northeast 181 208 900  Level Northern Cal TRACON
02:48PM 37.6667 -122.3167 50° Northeast 210 242 5,100 3,600 Climbing Northern Cal TRACON
02:50PM 37.7394 -122.2164 47° Northeast 246 283 10,100 3,240 Climbing Oakland Center
02:51PM 37.7661 -122.1242 70° East 282 325 13,400 3,120 Climbing Oakland Center
02:52PM 37.7942 -122.0231 71° East 303 349 16,600 2,880 Climbing Oakland Center
02:53PM 37.8236 -121.9167 71° East 320 368 19,400 2,580 Climbing Oakland Center
02:54PM 37.8550 -121.8019 71° East 343 395 21,900 2,460 Climbing Oakland Center
02:55PM 37.8911 -121.6744 70° East 380 437 24,500 2,400 Climbing Oakland Center
02:56PM 37.9281 -121.5397 71° East 404 465 26,900 2,580 Climbing Oakland Center
02:57PM 37.9708 -121.3850 71° East 416 479 29,900 2,580 Climbing Oakland Center
02:58PM 38.0092 -121.2456 71° East 420 483 32,200 2,100 Climbing Oakland Center
02:59PM 38.0475 -121.1011 71° East 433 498 34,300 1,980 Climbing Oakland Center
03:00PM 38.0814 -120.9525 74° East 440 506 36,300 1,860 Climbing Oakland Center
03:01PM 38.1067 -120.7658 80° East 450 518 38,200 1,560 Climbing Oakland Center
03:02PM 38.1275 -120.6075 80° East 458 527 39,600 1,320 Climbing Oakland Center
03:03PM 38.1497 -120.4469 80° East 463 533 41,000 660 Climbing Oakland Center
03:04PM 38.1700 -120.2817 81° East 475 547 41,000  Level Oakland Center
03:05PM 38.1931 -120.1092 80° East 494 568 41,000  Level Oakland Center
03:06PM 38.2144 -119.9403 81° East 487 560 41,000  Level Oakland Center
03:07PM 38.2356 -119.7697 81° East 489 563 41,000  Level Oakland Center
03:08PM 38.2581 -119.6006 80° East 487 560 41,000  Level Oakland Center
03:09PM 38.2792 -119.4208 81° East 490 564 41,000  Level Oakland Center
03:10PM 38.2992 -119.2503 81° East 489 563 41,000  Level Oakland Center
03:11PM 38.3247 -119.0458 81° East 490 564 41,000  Level Oakland Center
03:12PM 38.3444 -118.8750 82° East 490 564 41,000  Level Oakland Center
03:13PM 38.3650 -118.7042 81° East 491 565 41,000  Level Oakland Center
03:14PM 38.3839 -118.5328 82° East 490 564 41,000  Level Oakland Center
03:15PM 38.4039 -118.3633 81° East 487 560 41,000  Level Oakland Center
03:16PM 38.4225 -118.1928 82° East 488 562 41,000  Level Oakland Center
03:17PM 38.4442 -118.0019 82° East 491 565 41,000  Level Oakland Center
03:18PM 38.4631 -117.8283 82° East 493 567 41,000  Level Oakland Center
03:19PM 38.4814 -117.6544 82° East 492 566 41,000  Level Oakland Center
03:20PM 38.4969 -117.5158 82° East 490 564 41,000  Level Salt Lake Center
03:21PM 38.5144 -117.3428 83° East 488 562 41,000  Level Salt Lake Center
03:22PM 38.5189 -117.1669 88° East 492 566 41,000  Level Salt Lake Center
03:23PM 38.5142 -116.9906 92° East 492 566 41,000  Level Salt Lake Center
03:24PM 38.5100 -116.8144 92° East 492 566 41,000  Level Salt Lake Center
03:25PM 38.5050 -116.6406 92° East 490 564 41,000  Level Salt Lake Center
03:26PM 38.4997 -116.4317 92° East 490 564 41,000  Level Salt Lake Center
03:27PM 38.4956 -116.2572 92° East 490 564 41,000  Level Salt Lake Center
03:28PM 38.4900 -116.0853 92° East 488 562 41,000  Level Salt Lake Center
03:29PM 38.4850 -115.9119 92° East 487 560 41,000  Level Salt Lake Center
03:30PM 38.4797 -115.7383 92° East 489 563 41,000  Level Salt Lake Center
03:31PM 38.4736 -115.5669 93° East 484 557 41,000  Level Salt Lake Center
03:32PM 38.4681 -115.3953 92° East 485 558 41,000  Level Salt Lake Center
03:33PM 38.4611 -115.1994 93° East 489 563 41,000  Level Salt Lake Center
03:35PM 38.4553 -115.0278 92° East 486 559 41,000  Level Salt Lake Center
03:36PM 38.4489 -114.8561 93° East 485 558 41,000  Level Salt Lake Center
03:37PM 38.4417 -114.6853 93° East 484 557 41,000  Level Salt Lake Center
03:38PM 38.4339 -114.5142 93° East 483 556 41,000  Level Salt Lake Center
03:39PM 38.4261 -114.3078 93° East 484 557 41,000  Level Salt Lake Center
03:40PM 38.4181 -114.1331 93° East 490 564 41,000  Level Salt Lake Center
03:41PM 38.4103 -113.9575 93° East 496 571 41,000  Level Salt Lake Center
03:42PM 38.4022 -113.7822 93° East 496 571 41,000  Level Salt Lake Center
03:43PM 38.3928 -113.6078 94° East 493 567 41,000  Level Salt Lake Center
03:44PM 38.3839 -113.4319 94° East 495 570 41,000  Level Salt Lake Center
03:45PM 38.3742 -113.2553 94° East 498 573 41,000  Level Salt Lake Center
03:46PM 38.3644 -113.0789 94° East 497 572 41,000  Level Salt Lake Center
03:47PM 38.3447 -112.8672 97° East 500 575 41,000  Level Salt Lake Center
03:48PM 38.3233 -112.6908 99° East 501 577 41,000  Level Salt Lake Center
03:49PM 38.3019 -112.5153 99° East 500 575 41,000  Level Salt Lake Center
03:50PM 38.2803 -112.3383 99° East 503 579 41,000  Level Salt Lake Center
03:51PM 38.2586 -112.1625 99° East 503 579 41,000  Level Salt Lake Center
03:52PM 38.2367 -111.9850 99° East 506 582 41,000  Level Salt Lake Center
03:53PM 38.2136 -111.8089 99° East 504 580 41,000  Level Salt Lake Center
03:54PM 38.1919 -111.6322 99° East 506 582 41,000  Level Salt Lake Center
03:55PM 38.1686 -111.4539 99° East 509 586 41,000  Level Salt Lake Center
03:56PM 38.1406 -111.2414 99° East 509 586 41,000  Level Salt Lake Center
03:57PM 38.1161 -111.0644 100° East 509 586 41,000  Level Salt Lake Center
03:58PM 38.0928 -110.8903 100° East 509 586 41,000  Level Salt Lake Center
03:59PM 38.0703 -110.7219 100° East 506 582 41,000  Level Salt Lake Center
04:00PM 38.0411 -110.5228 100° East 509 586 41,000  Level Denver Center
04:01PM 38.0139 -110.3258 100° East 509 586 41,000  Level Denver Center
04:02PM 37.9883 -110.1503 100° East 512 589 41,000  Level Denver Center
04:03PM 37.9642 -109.9803 100° East 513 590 41,000  Level Denver Center
04:05PM 37.9347 -109.7781 100° East 521 600 41,000  Level Denver Center
04:06PM 37.9056 -109.5769 100° East 520 598 41,000  Level Denver Center
04:07PM 37.8758 -109.3733 100° East 525 604 41,000  Level Denver Center
04:08PM 37.8486 -109.1969 101° East 532 612 41,000  Level Denver Center
04:09PM 37.8175 -108.9906 101° East 535 616 41,000  Level Denver Center
04:10PM 37.7925 -108.8106 100° East 539 620 41,000  Level Denver Center
04:11PM 37.7642 -108.6069 100° East 530 610 41,000  Level Denver Center
04:12PM 37.7403 -108.4300 100° East 531 611 41,000  Level Denver Center
04:13PM 37.7156 -108.2528 100° East 534 615 41,000  Level Denver Center
04:14PM 37.6872 -108.0472 100° East 533 613 41,000  Level Denver Center
04:15PM 37.6622 -107.8719 100° East 531 611 41,000  Level Denver Center
04:16PM 37.6322 -107.6672 100° East 530 610 41,000  Level Denver Center
04:17PM 37.6067 -107.4892 100° East 535 616 41,000  Level Denver Center
04:18PM 37.5761 -107.2836 101° East 534 615 41,000  Level Denver Center
04:19PM 37.5503 -107.1053 100° East 538 619 41,000  Level Denver Center
04:20PM 37.5147 -106.8683 101° East 539 620 41,000  Level Denver Center
04:22PM 37.4869 -106.6903 101° East 540 621 41,000  Level Denver Center
04:23PM 37.4517 -106.4550 101° East 536 617 41,000  Level Denver Center
04:24PM 37.4278 -106.3064 101° East 539 620 41,000  Level Denver Center
04:25PM 37.3875 -106.0675 102° East 549 632 41,000  Level Denver Center
04:26PM 37.3600 -105.8897 101° East 542 624 41,000  Level Denver Center
04:27PM 37.3417 -105.6797 96° East 544 626 41,000  Level Denver Center
04:28PM 37.3372 -105.4964 92° East 547 629 41,000  Level Denver Center
04:29PM 37.3314 -105.2853 92° East 544 626 41,000  Level Denver Center
04:30PM 37.3253 -105.0925 92° East 545 627 41,000  Level Denver Center
04:31PM 37.3175 -104.9075 93° East 553 636 41,000 -60 Level Denver Center
04:32PM 37.3089 -104.6914 93° East 556 640 40,900  Descending Denver Center
04:33PM 37.3011 -104.5086 93° East 551 634 41,000  Climbing Denver Center
04:34PM 37.2908 -104.3044 94° East 531 611 41,000  Level Denver Center
04:35PM 37.2836 -104.1244 93° East 542 624 41,000  Level Denver Center
04:36PM 37.2736 -103.9128 93° East 550 633 41,000  Level Denver Center
04:37PM 37.2644 -103.7328 94° East 547 629 41,000  Level Denver Center
04:38PM 37.2533 -103.5211 94° East 547 629 41,000  Level Denver Center
04:39PM 37.2383 -103.3097 95° East 549 632 41,000  Level Albuquerque Center
04:40PM 37.2247 -103.1303 95° East 545 627 41,000  Level Albuquerque Center
04:41PM 37.2083 -102.9197 96° East 543 625 41,000  Level Albuquerque Center
04:42PM 37.1942 -102.7394 96° East 544 626 41,000  Level Albuquerque Center
04:43PM 37.1781 -102.5269 95° East 547 629 41,000  Level Albuquerque Center
04:44PM 37.1656 -102.3717 96° East 550 633 41,000  Level Kansas City Center
04:45PM 37.1489 -102.1606 96° East 548 631 41,000  Level Kansas City Center
04:46PM 37.1339 -101.9800 96° East 546 628 41,000  Level Kansas City Center
04:47PM 37.1156 -101.7697 96° East 546 628 41,000  Level Kansas City Center
04:48PM 37.1006 -101.5908 96° East 543 625 41,000  Level Kansas City Center
04:49PM 37.0811 -101.3808 97° East 546 628 41,000  Level Kansas City Center
04:50PM 37.0647 -101.2017 96° East 545 627 41,000  Level Kansas City Center
04:51PM 37.0461 -100.9947 96° East 542 624 41,000  Level Kansas City Center
04:52PM 37.0339 -100.8164 95° East 541 623 41,000  Level Kansas City Center
04:54PM 37.0206 -100.6058 94° East 546 628 41,000  Level Kansas City Center
04:55PM 37.0103 -100.4256 94° East 547 629 41,000  Level Kansas City Center
04:56PM 36.9958 -100.2156 95° East 546 628 41,000  Level Kansas City Center
04:57PM 36.9836 -100.0411 95° East 544 626 41,000  Level Kansas City Center
04:58PM 36.9711 -99.8511 95° East 546 628 41,000  Level Kansas City Center
04:59PM 36.9539 -99.6253 95° East 542 624 41,000  Level Kansas City Center
05:00PM 36.9397 -99.4372 95° East 541 623 41,000  Level Kansas City Center
05:01PM 36.9253 -99.2497 95° East 541 623 41,000  Level Kansas City Center
05:02PM 36.9100 -99.0633 96° East 539 620 41,000  Level Kansas City Center
05:03PM 36.8931 -98.8656 96° East 566 651 41,000  Level Kansas City Center
05:04PM 36.8806 -98.6856 95° East 535 616 41,000  Level Kansas City Center
05:05PM 36.8644 -98.4972 96° East 540 621 41,000  Level Kansas City Center
05:06PM 36.8453 -98.2836 96° East 540 621 41,000  Level Kansas City Center
05:07PM 36.8278 -98.0858 96° East 539 620 41,000  Level Kansas City Center
05:08PM 36.8119 -97.9028 96° East 534 615 41,000  Level Kansas City Center
05:09PM 36.7969 -97.7339 96° East 532 612 41,000  Level Kansas City Center
05:10PM 36.7822 -97.5494 96° East 536 617 41,000  Level Kansas City Center
05:11PM 36.7664 -97.3544 96° East 545 627 41,000  Level Kansas City Center
05:12PM 36.7436 -97.1322 97° East 541 623 41,000  Level Kansas City Center
05:13PM 36.7197 -96.9792 101° East 519 597 41,000  Level Kansas City Center
05:14PM 36.6925 -96.7972 101° East 529 609 41,000  Level Kansas City Center
05:15PM 36.6581 -96.5811 101° East 531 611 41,000  Level Kansas City Center
05:16PM 36.6314 -96.4014 100° East 528 608 41,000  Level Kansas City Center
05:17PM 36.6017 -96.2217 102° East 529 609 41,000  Level Kansas City Center
05:18PM 36.5733 -96.0425 101° East 528 608 41,000  Level Kansas City Center
05:19PM 36.5439 -95.8625 101° East 529 609 41,000  Level Kansas City Center
05:21PM 36.4831 -95.4828 101° East 530 610 41,000  Level Kansas City Center
05:22PM 36.4514 -95.3008 102° East 534 615 41,000  Level Kansas City Center
05:23PM 36.4158 -95.0967 102° East 538 619 41,000  Level Kansas City Center
05:25PM 36.3828 -94.9056 102° East 534 615 41,000  Level Kansas City Center
05:26PM 36.3514 -94.7253 102° East 534 615 41,000  Level Kansas City Center
05:27PM 36.3194 -94.5447 102° East 535 616 41,000  Level Kansas City Center
05:28PM 36.2869 -94.3661 103° East 532 612 41,000  Level Kansas City Center
05:28PM 36.2706 -94.2619 101° East 531 611 41,000  Level Memphis Center
05:29PM 36.2386 -94.0828 102° East 531 611 41,000  Level Memphis Center
05:30PM 36.2083 -93.9042 102° East 531 611 41,000  Level Memphis Center
05:31PM 36.1736 -93.7303 104° East 531 611 41,000  Level Memphis Center
05:32PM 36.1428 -93.5517 102° East 531 611 41,000  Level Memphis Center
05:33PM 36.1097 -93.3731 103° East 531 611 41,000  Level Memphis Center
05:34PM 36.0783 -93.2000 103° East 531 611 41,000  Level Memphis Center
05:35PM 36.0447 -93.0242 103° East 526 605 41,000  Level Memphis Center
05:36PM 36.0089 -92.8461 104° East 526 605 41,000  Level Memphis Center
05:37PM 35.9789 -92.6706 102° East 531 611 41,000  Level Memphis Center
05:38PM 35.9422 -92.4928 104° East 531 611 41,000  Level Memphis Center
05:39PM 35.9078 -92.3175 104° East 531 611 41,000  Level Memphis Center
05:40PM 35.8747 -92.1425 103° East 531 611 41,000  Level Memphis Center
05:41PM 35.8417 -91.9678 103° East 531 611 41,000  Level Memphis Center
05:42PM 35.8064 -91.7906 104° East 526 605 41,000  Level Memphis Center
05:43PM 35.7706 -91.6211 105° East 526 605 41,000  Level Memphis Center
05:44PM 35.7369 -91.4464 103° East 526 605 41,000  Level Memphis Center
05:45PM 35.6906 -91.2517 106° East 526 605 41,000  Level Memphis Center
05:46PM 35.6644 -91.0803 101° East 520 598 41,000  Level Memphis Center
05:47PM 35.6256 -90.9086 106° East 515 593 41,000  Level Memphis Center
05:48PM 35.5908 -90.7347 104° East 515 593 41,000  Level Memphis Center
05:49PM 35.5558 -90.5664 104° East 510 587 41,000  Level Memphis Center
05:50PM 35.5206 -90.3953 104° East 510 587 41,000  Level Memphis Center
05:51PM 35.4850 -90.2219 104° East 510 587 41,000  Level Memphis Center
05:52PM 35.4472 -90.0511 105° East 510 587 41,000  Level Memphis Center
05:53PM 35.4133 -89.8983 105° East 510 587 41,000  Level Memphis Center
05:54PM 35.3792 -89.7306 104° East 504 580 41,000  Level Memphis Center
05:55PM 35.3406 -89.5578 105° East 509 586 41,000  Level Memphis Center
05:56PM 35.3019 -89.3853 105° East 514 592 41,000  Level Memphis Center
05:57PM 35.2583 -89.1975 106° East 514 592 41,000  Level Memphis Center
05:58PM 35.2192 -89.0278 106° East 514 592 41,000  Level Memphis Center
05:59PM 35.1819 -88.8581 105° East 519 597 41,000  Level Memphis Center
06:00PM 35.1422 -88.6889 106° East 514 592 41,000  Level Memphis Center
06:01PM 35.1042 -88.5219 106° East 514 592 41,000  Level Memphis Center
06:02PM 35.0686 -88.3756 106° East 506 582 41,000  Level Memphis Center
06:03PM 35.0303 -88.2067 105° East 506 582 41,000  Level Memphis Center
06:04PM 34.9894 -88.0278 106° East 532 612 41,000 -900 Level Memphis Center
06:05PM 34.9489 -87.8642 107° East 520 598 39,200 -2,040 Descending Memphis Center
06:06PM 34.9056 -87.6906 107° East 495 570 37,000 -2,100 Descending Memphis Center
06:07PM 34.8664 -87.5250 106° East 501 577 35,000 -1,440 Descending Memphis Center
06:09PM 34.7986 -87.2208 105° East 573 659 33,000 -720 Descending Atlanta Center
06:10PM 34.7569 -87.0550 107° East 535 616 33,000 -300 Level Atlanta Center
06:11PM 34.7150 -86.8892 107° East 516 594 32,400 -1,320 Descending Atlanta Center
06:12PM 34.6747 -86.7286 107° East 502 578 30,400 -2,220 Descending Atlanta Center
06:13PM 34.6386 -86.5711 106° East 489 563 28,000 -2,400 Descending Atlanta Center
06:14PM 34.5997 -86.4261 108° East 475 547 25,600 -2,040 Descending Atlanta Center
06:15PM 34.5628 -86.2736 106° East 464 534 24,000 -840 Descending Atlanta Center
06:16PM 34.5258 -86.1289 107° East 464 534 24,000 -60 Level Atlanta Center
06:17PM 34.4906 -85.9919 107° East 446 513 23,900 -1,260 Descending Atlanta Center
06:18PM 34.4550 -85.8550 107° East 430 495 21,500 -2,640 Descending Atlanta Center
06:19PM 34.4175 -85.7133 108° East 406 467 18,700 -2,640 Descending Atlanta Center
06:20PM 34.3875 -85.5944 107° East 393 452 16,300 -2,280 Descending Atlanta Center
06:21PM 34.3556 -85.4806 109° East 362 417 14,200 -2,220 Descending Atlanta Center
06:22PM 34.3297 -85.3719 106° East 346 398 11,900 -2,040 Descending Atlanta Center
06:23PM 34.3036 -85.2658 107° East 339 390 10,200 -1,740 Descending Atlanta Center
06:24PM 34.2794 -85.1700 107° East 306 352 8,500 -1,140 Descending Atlanta Center
06:25PM 34.2533 -85.0792 109° East 293 337 8,000 -300 Descending Atlanta Center
06:26PM 34.2269 -84.9808 108° East 293 337 8,000  Level Atlanta Center
06:27PM 34.2044 -84.8953 108° East 298 343 8,000 -360 Level Atlanta Center
06:28PM 34.1656 -84.8094 119° Southeast 292 336 7,300 -1,140 Descending Atlanta Center
06:29PM 34.1450 -84.7189 105° East 287 330 5,800 -1,200 Descending Atlanta Center
06:30PM 34.1206 -84.6283 108° East 282 325 5,000 -420 Descending Atlanta Center
06:31PM 34.1000 -84.5456 107° East 277 319 5,000  Level Atlanta Center
06:32PM 34.0775 -84.4525 106° East 266 306 5,000 -780 Level Atlanta Center
06:33PM 34.0547 -84.3672 108° East 266 306 3,500 -780 Descending Atlanta Center
06:35PM 34.0167 -84.2500 111° Southeast 209 241 3,000 -300 Descending Atlanta TRACON
06:36PM 33.9667 -84.2500 180° South 174 200 2,800 -600 Descending Atlanta TRACON
06:37PM 33.9333 -84.2833 220° Southwest 157 181 1,900 -900 Descending Atlanta TRACON
06:39PM 33.8756 -84.3020 195° South  Level Estimated
06:46PM 33.8756 -84.3020 195° South  Level Estimated
06:47PM 33.8756 -84.3020 195° South  Level Estimated